Главная страница
METAR-TAF:

METAR-TAF

Аэропорты :

College Park, Мэриленд, США

широта: 38-58-50N, долгота: 076-55-20W, высота над уровнем моря: 15 м

Текущие метеонаблюдения

Эта сводка был подготовлена 19 минут назад, в 23:57 UTC
Ветер 4 Узел от северно-северо-западный
Температура 24°C
Влажность 54%
Давление 1017 hPa
Видимость: 16.1 км
ясное небо

METAR: KCGS 232357Z AUTO 33004KT 10SM CLR 24/14 A3004 RMK AO1 T02390137

Время: 20:16 (00:16 UTC)


TAF: отсутствует

Метеонаблюдения и прогнозы для более 4000 аэропортов (сводки METAR и TAF).

Имеющиеся станции представлены на карте желтыми и красными точками.

Чтобы увидеть название станции, наведите на нее мышь.

Затем щелкните, чтобы увидеть метеонаблюдения и метеопрогнозы.

Управление картой: чтобы увеличить масштаб, щелкните зеленые кнопки с черным крестиком; чтобы уменьшить масштаб, щелкните зеленую кнопку с тире; для просмотра соседних карт щелкайте зеленые стрелки.


METAR-TAF: